sensor_id;sensor_type;location;lat;lon;timestamp;temperature;humidity
10312;DHT22;5201;48.776;9.128;2023-03-01T00:01:05;0.60;99.90
10312;DHT22;5201;48.776;9.128;2023-03-01T00:03:32;0.60;99.90
10312;DHT22;5201;48.776;9.128;2023-03-01T00:05:58;0.40;99.90
10312;DHT22;5201;48.776;9.128;2023-03-01T00:08:24;0.30;99.90
10312;DHT22;5201;48.776;9.128;2023-03-01T00:13:27;0.30;99.90
10312;DHT22;5201;48.776;9.128;2023-03-01T00:15:53;0.30;99.90
10312;DHT22;5201;48.776;9.128;2023-03-01T00:18:19;0.40;99.90
10312;DHT22;5201;48.776;9.128;2023-03-01T00:20:55;0.50;99.90
10312;DHT22;5201;48.776;9.128;2023-03-01T00:23:21;0.40;99.90
10312;DHT22;5201;48.776;9.128;2023-03-01T00:25:47;0.40;99.90
10312;DHT22;5201;48.776;9.128;2023-03-01T00:28:13;0.30;99.90
10312;DHT22;5201;48.776;9.128;2023-03-01T00:30:38;0.20;99.90
10312;DHT22;5201;48.776;9.128;2023-03-01T00:33:04;0.30;99.90
10312;DHT22;5201;48.776;9.128;2023-03-01T00:35:32;0.30;99.90
10312;DHT22;5201;48.776;9.128;2023-03-01T00:37:58;0.40;99.90
10312;DHT22;5201;48.776;9.128;2023-03-01T00:40:28;0.40;99.90
10312;DHT22;5201;48.776;9.128;2023-03-01T00:42:54;0.40;99.90
10312;DHT22;5201;48.776;9.128;2023-03-01T00:45:19;0.30;99.90
10312;DHT22;5201;48.776;9.128;2023-03-01T00:47:45;0.30;99.90
10312;DHT22;5201;48.776;9.128;2023-03-01T00:50:11;0.30;99.90
10312;DHT22;5201;48.776;9.128;2023-03-01T00:52:37;0.30;99.90
10312;DHT22;5201;48.776;9.128;2023-03-01T00:55:03;1.70;99.90
10312;DHT22;5201;48.776;9.128;2023-03-01T00:57:30;0.30;99.90
10312;DHT22;5201;48.776;9.128;2023-03-01T00:59:55;0.30;99.90
10312;DHT22;5201;48.776;9.128;2023-03-01T01:02:21;0.20;99.90
10312;DHT22;5201;48.776;9.128;2023-03-01T01:04:47;-0.40;99.90
10312;DHT22;5201;48.776;9.128;2023-03-01T01:07:13;-0.60;99.90
10312;DHT22;5201;48.776;9.128;2023-03-01T01:09:39;-0.60;99.90
10312;DHT22;5201;48.776;9.128;2023-03-01T01:12:05;-0.60;99.90
10312;DHT22;5201;48.776;9.128;2023-03-01T01:14:30;-0.50;99.90
10312;DHT22;5201;48.776;9.128;2023-03-01T01:16:56;-0.70;99.90
10312;DHT22;5201;48.776;9.128;2023-03-01T01:19:22;-0.80;99.90
10312;DHT22;5201;48.776;9.128;2023-03-01T01:21:48;-0.80;99.90
10312;DHT22;5201;48.776;9.128;2023-03-01T01:24:14;-0.50;99.90
10312;DHT22;5201;48.776;9.128;2023-03-01T01:26:41;-0.50;99.90
10312;DHT22;5201;48.776;9.128;2023-03-01T01:29:07;-0.50;99.90
10312;DHT22;5201;48.776;9.128;2023-03-01T01:31:34;-0.60;99.90
10312;DHT22;5201;48.776;9.128;2023-03-01T01:34:01;-0.60;99.90
10312;DHT22;5201;48.776;9.128;2023-03-01T01:36:28;-0.90;99.90
10312;DHT22;5201;48.776;9.128;2023-03-01T01:38:53;-1.10;99.90
10312;DHT22;5201;48.776;9.128;2023-03-01T01:41:20;-1.10;99.90
10312;DHT22;5201;48.776;9.128;2023-03-01T01:44:48;-1.10;99.90
10312;DHT22;5201;48.776;9.128;2023-03-01T01:46:46;1.30;99.90
10312;DHT22;5201;48.776;9.128;2023-03-01T01:49:20;-1.40;99.90
10312;DHT22;5201;48.776;9.128;2023-03-01T01:51:49;-1.20;99.90
10312;DHT22;5201;48.776;9.128;2023-03-01T01:54:25;-1.00;99.90
10312;DHT22;5201;48.776;9.128;2023-03-01T01:56:57;-1.00;99.90
10312;DHT22;5201;48.776;9.128;2023-03-01T01:59:25;-1.10;99.90
10312;DHT22;5201;48.776;9.128;2023-03-01T02:01:52;-1.20;99.90
10312;DHT22;5201;48.776;9.128;2023-03-01T02:04:18;-1.10;99.90
10312;DHT22;5201;48.776;9.128;2023-03-01T02:07:18;-1.00;99.90
10312;DHT22;5201;48.776;9.128;2023-03-01T02:09:50;-0.80;99.90
10312;DHT22;5201;48.776;9.128;2023-03-01T02:12:18;-0.60;99.90
10312;DHT22;5201;48.776;9.128;2023-03-01T02:14:45;-0.50;99.90
10312;DHT22;5201;48.776;9.128;2023-03-01T02:17:12;-0.40;99.90
10312;DHT22;5201;48.776;9.128;2023-03-01T02:19:48;-0.30;99.90
10312;DHT22;5201;48.776;9.128;2023-03-01T02:22:30;-0.10;99.90
10312;DHT22;5201;48.776;9.128;2023-03-01T02:30:38;0.00;99.90
10312;DHT22;5201;48.776;9.128;2023-03-01T02:33:25;0.00;99.90
10312;DHT22;5201;48.776;9.128;2023-03-01T02:35:53;0.00;99.90
10312;DHT22;5201;48.776;9.128;2023-03-01T02:38:20;0.00;99.90
10312;DHT22;5201;48.776;9.128;2023-03-01T02:40:46;0.10;99.90
10312;DHT22;5201;48.776;9.128;2023-03-01T02:43:12;0.20;99.90
10312;DHT22;5201;48.776;9.128;2023-03-01T02:45:47;0.40;99.90
10312;DHT22;5201;48.776;9.128;2023-03-01T02:48:13;0.30;99.90
10312;DHT22;5201;48.776;9.128;2023-03-01T02:53:27;0.10;99.90
10312;DHT22;5201;48.776;9.128;2023-03-01T02:55:55;0.10;99.90
10312;DHT22;5201;48.776;9.128;2023-03-01T02:58:21;-0.10;99.90
10312;DHT22;5201;48.776;9.128;2023-03-01T03:00:47;0.70;99.90
10312;DHT22;5201;48.776;9.128;2023-03-01T03:03:15;-0.10;99.90
10312;DHT22;5201;48.776;9.128;2023-03-01T03:05:42;-0.20;99.90
10312;DHT22;5201;48.776;9.128;2023-03-01T03:08:08;-0.10;99.90
10312;DHT22;5201;48.776;9.128;2023-03-01T03:10:36;0.20;99.90
10312;DHT22;5201;48.776;9.128;2023-03-01T03:13:11;0.30;99.90
10312;DHT22;5201;48.776;9.128;2023-03-01T03:15:38;0.30;99.90
10312;DHT22;5201;48.776;9.128;2023-03-01T03:18:07;0.60;99.90
10312;DHT22;5201;48.776;9.128;2023-03-01T03:20:33;0.50;99.90
10312;DHT22;5201;48.776;9.128;2023-03-01T03:23:00;0.60;99.90
10312;DHT22;5201;48.776;9.128;2023-03-01T03:25:27;0.60;99.90
10312;DHT22;5201;48.776;9.128;2023-03-01T03:27:53;0.80;99.90
10312;DHT22;5201;48.776;9.128;2023-03-01T03:30:26;0.40;99.90
10312;DHT22;5201;48.776;9.128;2023-03-01T03:32:52;1.20;99.90
10312;DHT22;5201;48.776;9.128;2023-03-01T03:35:20;0.40;99.90
10312;DHT22;5201;48.776;9.128;2023-03-01T03:37:46;0.30;99.90
10312;DHT22;5201;48.776;9.128;2023-03-01T03:40:33;0.50;99.90
10312;DHT22;5201;48.776;9.128;2023-03-01T03:42:59;0.50;99.90
10312;DHT22;5201;48.776;9.128;2023-03-01T03:45:25;0.40;99.90
10312;DHT22;5201;48.776;9.128;2023-03-01T03:47:50;0.40;99.90
10312;DHT22;5201;48.776;9.128;2023-03-01T03:50:17;0.30;99.90
10312;DHT22;5201;48.776;9.128;2023-03-01T03:52:43;0.20;99.90
10312;DHT22;5201;48.776;9.128;2023-03-01T03:55:10;0.30;99.90
10312;DHT22;5201;48.776;9.128;2023-03-01T03:57:37;0.30;99.90
10312;DHT22;5201;48.776;9.128;2023-03-01T04:00:04;0.30;99.90
10312;DHT22;5201;48.776;9.128;2023-03-01T04:02:30;0.50;99.90
10312;DHT22;5201;48.776;9.128;2023-03-01T04:04:56;0.40;99.90
10312;DHT22;5201;48.776;9.128;2023-03-01T04:07:22;0.30;99.90
10312;DHT22;5201;48.776;9.128;2023-03-01T04:09:47;0.20;99.90
10312;DHT22;5201;48.776;9.128;2023-03-01T04:12:13;0.20;99.90
10312;DHT22;5201;48.776;9.128;2023-03-01T04:14:39;0.10;99.90
10312;DHT22;5201;48.776;9.128;2023-03-01T04:17:05;0.30;99.90
10312;DHT22;5201;48.776;9.128;2023-03-01T04:19:33;0.40;99.90
10312;DHT22;5201;48.776;9.128;2023-03-01T04:22:04;0.20;99.90
10312;DHT22;5201;48.776;9.128;2023-03-01T04:24:35;0.20;99.90
10312;DHT22;5201;48.776;9.128;2023-03-01T04:27:01;0.20;99.90
10312;DHT22;5201;48.776;9.128;2023-03-01T04:29:27;0.20;99.90
10312;DHT22;5201;48.776;9.128;2023-03-01T04:31:53;0.20;99.90
10312;DHT22;5201;48.776;9.128;2023-03-01T04:34:19;0.20;99.90
10312;DHT22;5201;48.776;9.128;2023-03-01T04:36:44;0.20;99.90
10312;DHT22;5201;48.776;9.128;2023-03-01T04:39:10;0.30;99.90
10312;DHT22;5201;48.776;9.128;2023-03-01T04:41:39;1.30;99.90
10312;DHT22;5201;48.776;9.128;2023-03-01T04:44:06;0.50;99.90
10312;DHT22;5201;48.776;9.128;2023-03-01T04:46:32;0.60;99.90
10312;DHT22;5201;48.776;9.128;2023-03-01T04:48:57;0.70;99.90
10312;DHT22;5201;48.776;9.128;2023-03-01T04:51:23;0.80;99.90
10312;DHT22;5201;48.776;9.128;2023-03-01T04:53:49;0.70;99.90
10312;DHT22;5201;48.776;9.128;2023-03-01T04:56:15;0.50;99.90
10312;DHT22;5201;48.776;9.128;2023-03-01T04:58:43;0.40;99.90
10312;DHT22;5201;48.776;9.128;2023-03-01T05:01:15;0.40;99.90
10312;DHT22;5201;48.776;9.128;2023-03-01T05:03:46;0.20;99.90
10312;DHT22;5201;48.776;9.128;2023-03-01T05:06:13;0.30;99.90
10312;DHT22;5201;48.776;9.128;2023-03-01T05:08:39;0.50;99.90
10312;DHT22;5201;48.776;9.128;2023-03-01T05:11:05;0.20;99.90
10312;DHT22;5201;48.776;9.128;2023-03-01T05:13:35;0.30;99.90
10312;DHT22;5201;48.776;9.128;2023-03-01T05:16:02;0.30;99.90
10312;DHT22;5201;48.776;9.128;2023-03-01T05:18:29;1.40;99.90
10312;DHT22;5201;48.776;9.128;2023-03-01T05:21:01;0.40;99.90
10312;DHT22;5201;48.776;9.128;2023-03-01T05:23:30;0.40;99.90
10312;DHT22;5201;48.776;9.128;2023-03-01T05:25:58;0.50;99.90
10312;DHT22;5201;48.776;9.128;2023-03-01T05:28:25;0.50;99.90
10312;DHT22;5201;48.776;9.128;2023-03-01T05:30:51;0.40;99.90
10312;DHT22;5201;48.776;9.128;2023-03-01T05:33:17;1.10;99.90
10312;DHT22;5201;48.776;9.128;2023-03-01T05:35:44;0.50;99.90
10312;DHT22;5201;48.776;9.128;2023-03-01T05:38:11;0.50;99.90
10312;DHT22;5201;48.776;9.128;2023-03-01T05:40:45;0.60;99.90
10312;DHT22;5201;48.776;9.128;2023-03-01T05:43:11;0.40;99.90
10312;DHT22;5201;48.776;9.128;2023-03-01T05:45:38;0.60;99.90
10312;DHT22;5201;48.776;9.128;2023-03-01T05:48:05;0.50;99.90
10312;DHT22;5201;48.776;9.128;2023-03-01T05:50:36;0.40;99.90
10312;DHT22;5201;48.776;9.128;2023-03-01T05:53:09;0.50;99.90
10312;DHT22;5201;48.776;9.128;2023-03-01T05:55:36;0.30;99.90
10312;DHT22;5201;48.776;9.128;2023-03-01T05:58:04;0.50;99.90
10312;DHT22;5201;48.776;9.128;2023-03-01T06:00:30;0.50;99.90
10312;DHT22;5201;48.776;9.128;2023-03-01T06:02:57;0.60;99.90
10312;DHT22;5201;48.776;9.128;2023-03-01T06:05:23;0.60;99.90
10312;DHT22;5201;48.776;9.128;2023-03-01T06:07:49;0.30;99.90
10312;DHT22;5201;48.776;9.128;2023-03-01T06:10:16;0.40;99.90
10312;DHT22;5201;48.776;9.128;2023-03-01T06:12:42;0.40;99.90
10312;DHT22;5201;48.776;9.128;2023-03-01T06:15:11;0.60;99.90
10312;DHT22;5201;48.776;9.128;2023-03-01T06:17:39;0.40;99.90
10312;DHT22;5201;48.776;9.128;2023-03-01T06:20:14;0.40;99.90
10312;DHT22;5201;48.776;9.128;2023-03-01T06:22:40;0.30;99.90
10312;DHT22;5201;48.776;9.128;2023-03-01T06:25:06;0.40;99.90
10312;DHT22;5201;48.776;9.128;2023-03-01T06:27:32;0.30;99.90
10312;DHT22;5201;48.776;9.128;2023-03-01T06:29:57;0.20;99.90
10312;DHT22;5201;48.776;9.128;2023-03-01T06:32:23;0.20;99.90
10312;DHT22;5201;48.776;9.128;2023-03-01T06:34:49;0.30;99.90
10312;DHT22;5201;48.776;9.128;2023-03-01T06:37:15;0.00;99.90
10312;DHT22;5201;48.776;9.128;2023-03-01T06:39:41;-0.10;99.90
10312;DHT22;5201;48.776;9.128;2023-03-01T06:42:07;-0.10;99.90
10312;DHT22;5201;48.776;9.128;2023-03-01T06:44:33;0.10;99.90
10312;DHT22;5201;48.776;9.128;2023-03-01T06:46:59;0.50;99.90
10312;DHT22;5201;48.776;9.128;2023-03-01T06:49:24;0.40;99.90
10312;DHT22;5201;48.776;9.128;2023-03-01T06:51:50;0.50;99.90
10312;DHT22;5201;48.776;9.128;2023-03-01T06:54:15;0.50;99.90
10312;DHT22;5201;48.776;9.128;2023-03-01T06:56:43;0.50;99.90
10312;DHT22;5201;48.776;9.128;2023-03-01T06:59:08;0.50;99.90
10312;DHT22;5201;48.776;9.128;2023-03-01T07:01:34;0.50;99.90
10312;DHT22;5201;48.776;9.128;2023-03-01T07:03:59;0.60;99.90
10312;DHT22;5201;48.776;9.128;2023-03-01T07:06:25;0.80;99.90
10312;DHT22;5201;48.776;9.128;2023-03-01T07:08:50;0.90;99.90
10312;DHT22;5201;48.776;9.128;2023-03-01T07:11:16;1.20;99.90
10312;DHT22;5201;48.776;9.128;2023-03-01T07:13:42;1.70;99.90
10312;DHT22;5201;48.776;9.128;2023-03-01T07:16:08;2.40;99.90
10312;DHT22;5201;48.776;9.128;2023-03-01T07:18:33;2.70;99.90
10312;DHT22;5201;48.776;9.128;2023-03-01T07:21:04;3.20;99.90
10312;DHT22;5201;48.776;9.128;2023-03-01T07:23:30;3.40;99.90
10312;DHT22;5201;48.776;9.128;2023-03-01T07:25:55;3.80;99.90
10312;DHT22;5201;48.776;9.128;2023-03-01T07:28:23;4.00;99.90
10312;DHT22;5201;48.776;9.128;2023-03-01T07:30:48;3.80;99.90
10312;DHT22;5201;48.776;9.128;2023-03-01T07:33:14;3.80;99.90
10312;DHT22;5201;48.776;9.128;2023-03-01T07:35:40;4.10;99.90
10312;DHT22;5201;48.776;9.128;2023-03-01T07:38:05;4.60;99.90
10312;DHT22;5201;48.776;9.128;2023-03-01T07:40:31;4.50;99.90
10312;DHT22;5201;48.776;9.128;2023-03-01T07:42:57;4.70;99.90
10312;DHT22;5201;48.776;9.128;2023-03-01T07:45:24;4.90;99.90
10312;DHT22;5201;48.776;9.128;2023-03-01T07:47:51;5.00;99.90
10312;DHT22;5201;48.776;9.128;2023-03-01T07:50:17;4.90;99.90
10312;DHT22;5201;48.776;9.128;2023-03-01T07:52:45;5.40;99.90
10312;DHT22;5201;48.776;9.128;2023-03-01T07:55:10;5.70;99.40
10312;DHT22;5201;48.776;9.128;2023-03-01T07:57:36;5.90;99.30
10312;DHT22;5201;48.776;9.128;2023-03-01T08:00:02;6.00;99.00
10312;DHT22;5201;48.776;9.128;2023-03-01T08:02:28;5.80;99.30
10312;DHT22;5201;48.776;9.128;2023-03-01T08:04:53;6.10;98.70
10312;DHT22;5201;48.776;9.128;2023-03-01T08:07:19;6.20;98.70
10312;DHT22;5201;48.776;9.128;2023-03-01T08:09:44;6.10;98.80
10312;DHT22;5201;48.776;9.128;2023-03-01T08:12:10;6.20;98.20
10312;DHT22;5201;48.776;9.128;2023-03-01T08:14:35;6.30;98.30
10312;DHT22;5201;48.776;9.128;2023-03-01T08:17:01;6.80;97.90
10312;DHT22;5201;48.776;9.128;2023-03-01T08:19:29;5.90;97.80
10312;DHT22;5201;48.776;9.128;2023-03-01T08:21:55;6.30;98.40
10312;DHT22;5201;48.776;9.128;2023-03-01T08:24:23;6.50;98.10
10312;DHT22;5201;48.776;9.128;2023-03-01T08:26:49;7.00;97.60
10312;DHT22;5201;48.776;9.128;2023-03-01T08:29:15;6.70;97.10
10312;DHT22;5201;48.776;9.128;2023-03-01T08:31:41;6.60;97.50
10312;DHT22;5201;48.776;9.128;2023-03-01T08:34:09;6.40;97.70
10312;DHT22;5201;48.776;9.128;2023-03-01T08:36:37;6.90;97.40
10312;DHT22;5201;48.776;9.128;2023-03-01T08:39:04;7.10;97.00
10312;DHT22;5201;48.776;9.128;2023-03-01T08:41:30;7.20;96.70
10312;DHT22;5201;48.776;9.128;2023-03-01T08:43:56;6.90;96.70
10312;DHT22;5201;48.776;9.128;2023-03-01T08:46:30;7.30;97.00
10312;DHT22;5201;48.776;9.128;2023-03-01T08:48:56;7.20;96.60
10312;DHT22;5201;48.776;9.128;2023-03-01T08:51:22;7.10;96.70
10312;DHT22;5201;48.776;9.128;2023-03-01T08:53:48;7.60;96.70
10312;DHT22;5201;48.776;9.128;2023-03-01T08:56:15;7.60;96.20
10312;DHT22;5201;48.776;9.128;2023-03-01T08:58:44;7.70;96.10
10312;DHT22;5201;48.776;9.128;2023-03-01T09:01:11;7.30;96.40
10312;DHT22;5201;48.776;9.128;2023-03-01T09:03:37;7.90;96.30
10312;DHT22;5201;48.776;9.128;2023-03-01T09:06:04;8.00;95.70
10312;DHT22;5201;48.776;9.128;2023-03-01T09:08:37;7.80;95.80
10312;DHT22;5201;48.776;9.128;2023-03-01T09:11:04;7.70;95.70
10312;DHT22;5201;48.776;9.128;2023-03-01T09:13:30;7.70;96.10
10312;DHT22;5201;48.776;9.128;2023-03-01T09:15:57;7.90;95.90
10312;DHT22;5201;48.776;9.128;2023-03-01T09:18:23;7.50;95.60
10312;DHT22;5201;48.776;9.128;2023-03-01T09:20:48;7.80;95.60
10312;DHT22;5201;48.776;9.128;2023-03-01T09:23:14;7.40;95.90
10312;DHT22;5201;48.776;9.128;2023-03-01T09:25:39;7.40;96.00
10312;DHT22;5201;48.776;9.128;2023-03-01T09:28:05;6.60;96.40
10312;DHT22;5201;48.776;9.128;2023-03-01T09:30:31;7.00;96.60
10312;DHT22;5201;48.776;9.128;2023-03-01T09:32:57;7.20;96.20
10312;DHT22;5201;48.776;9.128;2023-03-01T09:35:22;7.30;96.20
10312;DHT22;5201;48.776;9.128;2023-03-01T09:37:49;6.60;96.50
10312;DHT22;5201;48.776;9.128;2023-03-01T09:40:18;6.60;96.60
10312;DHT22;5201;48.776;9.128;2023-03-01T09:42:58;6.60;96.50
10312;DHT22;5201;48.776;9.128;2023-03-01T09:45:33;6.90;96.40
10312;DHT22;5201;48.776;9.128;2023-03-01T09:47:59;6.90;96.40
10312;DHT22;5201;48.776;9.128;2023-03-01T09:50:32;7.10;96.20
10312;DHT22;5201;48.776;9.128;2023-03-01T09:55:37;7.80;95.30
10312;DHT22;5201;48.776;9.128;2023-03-01T10:03:43;7.70;95.30
10312;DHT22;5201;48.776;9.128;2023-03-01T10:06:15;7.90;95.50
10312;DHT22;5201;48.776;9.128;2023-03-01T10:08:52;8.40;94.90
10312;DHT22;5201;48.776;9.128;2023-03-01T10:17:33;9.10;94.00
10312;DHT22;5201;48.776;9.128;2023-03-01T10:19:41;9.30;94.10
10312;DHT22;5201;48.776;9.128;2023-03-01T10:22:26;9.10;93.90
10312;DHT22;5201;48.776;9.128;2023-03-01T10:24:55;8.70;94.20
10312;DHT22;5201;48.776;9.128;2023-03-01T10:27:24;8.60;94.00
10312;DHT22;5201;48.776;9.128;2023-03-01T10:32:23;8.20;94.20
10312;DHT22;5201;48.776;9.128;2023-03-01T10:34:49;7.80;94.20
10312;DHT22;5201;48.776;9.128;2023-03-01T10:37:17;7.70;94.80
10312;DHT22;5201;48.776;9.128;2023-03-01T10:42:36;8.20;94.80
10312;DHT22;5201;48.776;9.128;2023-03-01T10:50:33;8.30;94.60
10312;DHT22;5201;48.776;9.128;2023-03-01T10:53:02;8.40;94.00
10312;DHT22;5201;48.776;9.128;2023-03-01T10:55:35;8.20;94.20
10312;DHT22;5201;48.776;9.128;2023-03-01T10:58:18;8.40;94.40
10312;DHT22;5201;48.776;9.128;2023-03-01T11:00:51;8.70;93.90
10312;DHT22;5201;48.776;9.128;2023-03-01T11:03:34;9.00;93.90
10312;DHT22;5201;48.776;9.128;2023-03-01T11:08:47;7.60;94.60
10312;DHT22;5201;48.776;9.128;2023-03-01T11:11:14;7.10;95.00
10312;DHT22;5201;48.776;9.128;2023-03-01T11:16:34;7.40;94.90
10312;DHT22;5201;48.776;9.128;2023-03-01T11:24:12;7.30;95.20
10312;DHT22;5201;48.776;9.128;2023-03-01T11:26:42;7.10;95.70
10312;DHT22;5201;48.776;9.128;2023-03-01T11:29:17;6.60;95.80
10312;DHT22;5201;48.776;9.128;2023-03-01T11:31:48;6.80;95.80
10312;DHT22;5201;48.776;9.128;2023-03-01T11:34:19;6.90;95.80
10312;DHT22;5201;48.776;9.128;2023-03-01T11:36:54;7.10;95.60
10312;DHT22;5201;48.776;9.128;2023-03-01T11:39:43;6.80;95.50
10312;DHT22;5201;48.776;9.128;2023-03-01T11:42:37;6.30;96.20
10312;DHT22;5201;48.776;9.128;2023-03-01T11:45:08;6.70;96.00
10312;DHT22;5201;48.776;9.128;2023-03-01T11:50:47;7.20;95.80
10312;DHT22;5201;48.776;9.128;2023-03-01T11:56:11;6.70;95.90
10312;DHT22;5201;48.776;9.128;2023-03-01T11:58:55;6.70;96.00
10312;DHT22;5201;48.776;9.128;2023-03-01T12:02:15;7.00;96.00
10312;DHT22;5201;48.776;9.128;2023-03-01T12:10:27;7.40;95.40
10312;DHT22;5201;48.776;9.128;2023-03-01T12:13:04;7.20;95.60
10312;DHT22;5201;48.776;9.128;2023-03-01T12:33:14;7.30;96.10
10312;DHT22;5201;48.776;9.128;2023-03-01T12:36:04;7.30;95.60
10312;DHT22;5201;48.776;9.128;2023-03-01T12:38:40;7.60;95.40
10312;DHT22;5201;48.776;9.128;2023-03-01T12:49:30;7.80;95.40
10312;DHT22;5201;48.776;9.128;2023-03-01T12:52:01;7.50;95.40
10312;DHT22;5201;48.776;9.128;2023-03-01T12:54:33;7.30;95.60
10312;DHT22;5201;48.776;9.128;2023-03-01T12:57:18;7.30;95.60
10312;DHT22;5201;48.776;9.128;2023-03-01T13:03:09;7.40;95.50
10312;DHT22;5201;48.776;9.128;2023-03-01T13:05:41;7.10;96.00
10312;DHT22;5201;48.776;9.128;2023-03-01T13:08:26;7.20;96.00
10312;DHT22;5201;48.776;9.128;2023-03-01T13:11:04;7.30;96.20
10312;DHT22;5201;48.776;9.128;2023-03-01T13:13:31;7.50;96.20
10312;DHT22;5201;48.776;9.128;2023-03-01T13:15:57;7.20;96.00
10312;DHT22;5201;48.776;9.128;2023-03-01T13:18:43;7.30;96.20
10312;DHT22;5201;48.776;9.128;2023-03-01T13:21:08;7.30;96.10
10312;DHT22;5201;48.776;9.128;2023-03-01T13:23:37;7.30;96.00
10312;DHT22;5201;48.776;9.128;2023-03-01T13:26:17;7.20;96.00
10312;DHT22;5201;48.776;9.128;2023-03-01T13:28:48;7.30;96.10
10312;DHT22;5201;48.776;9.128;2023-03-01T13:33:52;7.30;96.20
10312;DHT22;5201;48.776;9.128;2023-03-01T13:38:56;4.50;95.30
10312;DHT22;5201;48.776;9.128;2023-03-01T13:44:26;7.20;96.40
10312;DHT22;5201;48.776;9.128;2023-03-01T13:49:57;7.30;96.40
10312;DHT22;5201;48.776;9.128;2023-03-01T13:52:44;7.10;96.60
10312;DHT22;5201;48.776;9.128;2023-03-01T13:57:39;7.10;96.60
10312;DHT22;5201;48.776;9.128;2023-03-01T14:00:24;7.80;97.00
10312;DHT22;5201;48.776;9.128;2023-03-01T14:03:08;7.10;96.70
10312;DHT22;5201;48.776;9.128;2023-03-01T14:05:34;6.90;96.50
10312;DHT22;5201;48.776;9.128;2023-03-01T14:08:05;6.80;96.80
10312;DHT22;5201;48.776;9.128;2023-03-01T14:18:44;6.60;97.40
10312;DHT22;5201;48.776;9.128;2023-03-01T14:21:14;6.80;97.00
10312;DHT22;5201;48.776;9.128;2023-03-01T14:23:41;7.00;97.00
10312;DHT22;5201;48.776;9.128;2023-03-01T14:26:08;6.90;96.90
10312;DHT22;5201;48.776;9.128;2023-03-01T14:28:36;7.10;97.10
10312;DHT22;5201;48.776;9.128;2023-03-01T14:31:37;6.60;97.20
10312;DHT22;5201;48.776;9.128;2023-03-01T14:34:04;6.80;97.30
10312;DHT22;5201;48.776;9.128;2023-03-01T14:36:32;6.70;97.30
10312;DHT22;5201;48.776;9.128;2023-03-01T14:38:58;6.70;97.50
10312;DHT22;5201;48.776;9.128;2023-03-01T14:41:32;6.90;97.60
10312;DHT22;5201;48.776;9.128;2023-03-01T14:44:14;6.90;97.30
10312;DHT22;5201;48.776;9.128;2023-03-01T14:46:43;6.80;97.40
10312;DHT22;5201;48.776;9.128;2023-03-01T14:51:43;6.90;97.40
10312;DHT22;5201;48.776;9.128;2023-03-01T14:54:37;7.00;97.50
10312;DHT22;5201;48.776;9.128;2023-03-01T14:57:05;6.90;97.30
10312;DHT22;5201;48.776;9.128;2023-03-01T14:59:37;6.80;97.60
10312;DHT22;5201;48.776;9.128;2023-03-01T15:02:03;6.80;97.60
10312;DHT22;5201;48.776;9.128;2023-03-01T15:04:29;6.70;97.80
10312;DHT22;5201;48.776;9.128;2023-03-01T15:06:57;6.70;98.00
10312;DHT22;5201;48.776;9.128;2023-03-01T15:09:32;6.90;97.90
10312;DHT22;5201;48.776;9.128;2023-03-01T15:11:59;7.00;97.70
10312;DHT22;5201;48.776;9.128;2023-03-01T15:14:38;6.80;97.70
10312;DHT22;5201;48.776;9.128;2023-03-01T15:17:14;6.50;97.60
10312;DHT22;5201;48.776;9.128;2023-03-01T15:19:41;6.40;97.80
10312;DHT22;5201;48.776;9.128;2023-03-01T15:22:16;6.40;98.00
10312;DHT22;5201;48.776;9.128;2023-03-01T15:24:47;6.50;98.10
10312;DHT22;5201;48.776;9.128;2023-03-01T15:27:18;6.40;98.10
10312;DHT22;5201;48.776;9.128;2023-03-01T15:29:57;6.40;98.20
10312;DHT22;5201;48.776;9.128;2023-03-01T15:32:35;6.50;98.10
10312;DHT22;5201;48.776;9.128;2023-03-01T15:35:33;6.50;98.10
10312;DHT22;5201;48.776;9.128;2023-03-01T15:38:00;6.60;98.10
10312;DHT22;5201;48.776;9.128;2023-03-01T15:40:30;6.70;98.10
10312;DHT22;5201;48.776;9.128;2023-03-01T15:43:03;8.70;99.00
10312;DHT22;5201;48.776;9.128;2023-03-01T15:45:31;6.60;98.00
10312;DHT22;5201;48.776;9.128;2023-03-01T15:48:04;6.60;98.00
10312;DHT22;5201;48.776;9.128;2023-03-01T15:50:31;6.60;97.90
10312;DHT22;5201;48.776;9.128;2023-03-01T15:52:59;6.40;98.00
10312;DHT22;5201;48.776;9.128;2023-03-01T15:55:27;8.40;99.00
10312;DHT22;5201;48.776;9.128;2023-03-01T15:58:43;6.40;98.10
10312;DHT22;5201;48.776;9.128;2023-03-01T16:00:50;6.40;98.10
10312;DHT22;5201;48.776;9.128;2023-03-01T16:03:22;6.20;98.50
10312;DHT22;5201;48.776;9.128;2023-03-01T16:05:51;6.40;98.00
10312;DHT22;5201;48.776;9.128;2023-03-01T16:08:18;7.20;98.30
10312;DHT22;5201;48.776;9.128;2023-03-01T16:10:44;8.30;98.90
10312;DHT22;5201;48.776;9.128;2023-03-01T16:13:13;6.40;98.00
10312;DHT22;5201;48.776;9.128;2023-03-01T16:15:39;6.30;97.80
10312;DHT22;5201;48.776;9.128;2023-03-01T16:18:06;6.30;97.90
10312;DHT22;5201;48.776;9.128;2023-03-01T16:20:33;6.40;97.80
10312;DHT22;5201;48.776;9.128;2023-03-01T16:23:00;6.50;97.70
10312;DHT22;5201;48.776;9.128;2023-03-01T16:25:26;6.50;97.50
10312;DHT22;5201;48.776;9.128;2023-03-01T16:27:52;6.60;97.70
10312;DHT22;5201;48.776;9.128;2023-03-01T16:30:19;6.50;97.70
10312;DHT22;5201;48.776;9.128;2023-03-01T16:32:46;6.50;97.80
10312;DHT22;5201;48.776;9.128;2023-03-01T16:35:14;6.40;97.80
10312;DHT22;5201;48.776;9.128;2023-03-01T16:37:39;6.40;98.00
10312;DHT22;5201;48.776;9.128;2023-03-01T16:40:11;6.30;98.00
10312;DHT22;5201;48.776;9.128;2023-03-01T16:42:41;6.40;98.00
10312;DHT22;5201;48.776;9.128;2023-03-01T16:45:08;6.20;98.00
10312;DHT22;5201;48.776;9.128;2023-03-01T16:47:34;6.30;98.00
10312;DHT22;5201;48.776;9.128;2023-03-01T16:49:59;6.30;98.20
10312;DHT22;5201;48.776;9.128;2023-03-01T16:52:25;6.40;98.10
10312;DHT22;5201;48.776;9.128;2023-03-01T16:54:51;6.10;98.20
10312;DHT22;5201;48.776;9.128;2023-03-01T16:57:17;6.10;98.20
10312;DHT22;5201;48.776;9.128;2023-03-01T16:59:43;6.10;98.40
10312;DHT22;5201;48.776;9.128;2023-03-01T17:02:12;6.10;98.40
10312;DHT22;5201;48.776;9.128;2023-03-01T17:04:41;7.40;98.70
10312;DHT22;5201;48.776;9.128;2023-03-01T17:07:07;6.00;98.30
10312;DHT22;5201;48.776;9.128;2023-03-01T17:09:37;6.00;98.30
10312;DHT22;5201;48.776;9.128;2023-03-01T17:12:04;6.00;98.50
10312;DHT22;5201;48.776;9.128;2023-03-01T17:14:30;6.00;98.50
10312;DHT22;5201;48.776;9.128;2023-03-01T17:16:55;6.00;98.30
10312;DHT22;5201;48.776;9.128;2023-03-01T17:19:21;6.00;98.30
10312;DHT22;5201;48.776;9.128;2023-03-01T17:21:47;5.90;98.30
10312;DHT22;5201;48.776;9.128;2023-03-01T17:24:12;6.00;98.30
10312;DHT22;5201;48.776;9.128;2023-03-01T17:26:38;5.90;98.50
10312;DHT22;5201;48.776;9.128;2023-03-01T17:29:05;5.90;98.40
10312;DHT22;5201;48.776;9.128;2023-03-01T17:31:32;5.90;98.50
10312;DHT22;5201;48.776;9.128;2023-03-01T17:33:58;5.90;98.60
10312;DHT22;5201;48.776;9.128;2023-03-01T17:36:23;6.00;98.40
10312;DHT22;5201;48.776;9.128;2023-03-01T17:38:49;5.90;98.50
10312;DHT22;5201;48.776;9.128;2023-03-01T17:41:14;5.90;98.50
10312;DHT22;5201;48.776;9.128;2023-03-01T17:43:46;5.80;98.70
10312;DHT22;5201;48.776;9.128;2023-03-01T17:46:12;5.80;98.80
10312;DHT22;5201;48.776;9.128;2023-03-01T17:48:37;5.70;98.70
10312;DHT22;5201;48.776;9.128;2023-03-01T17:51:07;5.70;98.70
10312;DHT22;5201;48.776;9.128;2023-03-01T17:53:34;5.60;98.70
10312;DHT22;5201;48.776;9.128;2023-03-01T17:56:02;5.60;98.80
10312;DHT22;5201;48.776;9.128;2023-03-01T17:58:28;5.70;98.80
10312;DHT22;5201;48.776;9.128;2023-03-01T18:00:54;5.50;98.90
10312;DHT22;5201;48.776;9.128;2023-03-01T18:03:20;5.40;98.90